createdAt,value
2018-11-29T00:00:27.389Z,15.77
2018-11-29T00:02:55.782Z,14.57
2018-11-29T00:05:24.127Z,15.80
2018-11-29T00:07:52.664Z,20.17
2018-11-29T00:10:21.040Z,18.30
2018-11-29T00:12:49.943Z,17.63
2018-11-29T00:15:18.263Z,19.60
2018-11-29T00:17:46.597Z,13.07
2018-11-29T00:20:16.792Z,17.07
2018-11-29T00:22:46.930Z,16.83
2018-11-29T00:25:16.133Z,14.87
2018-11-29T00:27:44.644Z,14.47
2018-11-29T00:30:22.948Z,16.40
2018-11-29T00:32:52.055Z,16.73
2018-11-29T00:35:20.409Z,15.50
2018-11-29T00:37:48.813Z,14.20
2018-11-29T00:40:20.771Z,15.37
2018-11-29T00:42:49.119Z,20.67
2018-11-29T00:45:18.485Z,17.13
2018-11-29T00:47:47.493Z,21.70
2018-11-29T00:50:16.466Z,15.60
2018-11-29T00:52:45.616Z,21.00
2018-11-29T00:55:16.063Z,22.07
2018-11-29T00:57:45.683Z,15.17
2018-11-29T01:00:16.112Z,19.20
2018-11-29T01:02:44.476Z,17.13
2018-11-29T01:05:12.827Z,19.63
2018-11-29T01:07:41.183Z,15.90
2018-11-29T01:10:10.729Z,17.03
2018-11-29T01:12:39.079Z,16.17
2018-11-29T01:15:09.670Z,18.77
2018-11-29T01:17:38.028Z,20.70
2018-11-29T01:20:09.180Z,18.50
2018-11-29T01:22:37.513Z,21.30
2018-11-29T01:25:06.850Z,23.50
2018-11-29T01:27:35.242Z,21.73
2018-11-29T01:30:03.684Z,20.67
2018-11-29T01:32:32.100Z,23.23
2018-11-29T01:35:00.455Z,23.83
2018-11-29T01:37:29.365Z,21.23
2018-11-29T01:39:58.589Z,18.83
2018-11-29T01:42:26.915Z,19.47
2018-11-29T01:44:55.336Z,26.67
2018-11-29T01:47:24.507Z,21.37
2018-11-29T01:49:52.888Z,18.50
2018-11-29T01:52:22.035Z,21.10
2018-11-29T01:54:50.380Z,19.80
2018-11-29T01:57:18.777Z,17.00
2018-11-29T01:59:47.962Z,17.90
2018-11-29T02:02:16.357Z,18.00
2018-11-29T02:04:44.710Z,21.23
2018-11-29T02:07:13.107Z,16.13
2018-11-29T02:09:41.488Z,16.97
2018-11-29T02:12:10.601Z,14.00
2018-11-29T02:14:38.963Z,14.23
2018-11-29T02:17:07.295Z,10.97
2018-11-29T02:19:35.735Z,9.50
2018-11-29T02:22:04.128Z,13.20
2018-11-29T02:24:32.571Z,11.37
2018-11-29T02:27:00.954Z,11.30
2018-11-29T02:29:29.319Z,8.63
2018-11-29T02:31:57.657Z,10.70
2018-11-29T02:34:26.720Z,10.50
2018-11-29T02:36:55.146Z,7.13
2018-11-29T02:39:24.102Z,7.37
2018-11-29T02:41:52.415Z,5.23
2018-11-29T02:44:20.799Z,7.17
2018-11-29T02:46:49.204Z,7.13
2018-11-29T02:49:18.512Z,5.70
2018-11-29T02:51:46.868Z,5.23
2018-11-29T02:54:15.275Z,4.90
2018-11-29T02:56:43.672Z,5.17
2018-11-29T02:59:12.062Z,5.80
2018-11-29T03:01:40.370Z,6.13
2018-11-29T03:04:08.696Z,7.57
2018-11-29T03:06:37.009Z,7.00
2018-11-29T03:09:06.483Z,6.70
2018-11-29T03:11:35.371Z,5.23
2018-11-29T03:14:03.693Z,4.80
2018-11-29T03:16:32.145Z,7.23
2018-11-29T03:19:00.529Z,8.37
2018-11-29T03:21:28.960Z,5.13
2018-11-29T03:23:57.288Z,8.03
2018-11-29T03:26:25.637Z,5.70
2018-11-29T03:28:54.002Z,9.03
2018-11-29T03:31:22.299Z,7.77
2018-11-29T03:33:50.633Z,6.50
2018-11-29T03:36:19.036Z,6.83
2018-11-29T03:38:47.388Z,7.67
2018-11-29T03:41:15.800Z,6.73
2018-11-29T03:43:44.146Z,7.83
2018-11-29T03:46:12.536Z,6.77
2018-11-29T03:48:40.840Z,7.00
2018-11-29T03:51:09.213Z,8.10
2018-11-29T03:53:37.556Z,10.47
2018-11-29T03:56:06.424Z,10.27
2018-11-29T03:58:35.534Z,12.70
2018-11-29T04:01:03.863Z,11.97
2018-11-29T04:03:32.188Z,10.90
2018-11-29T04:06:00.545Z,13.00
2018-11-29T04:08:28.854Z,14.60
2018-11-29T04:10:57.215Z,18.90
2018-11-29T04:13:25.582Z,16.80
2018-11-29T04:15:53.917Z,18.83
2018-11-29T04:18:22.259Z,12.93
2018-11-29T04:20:50.621Z,16.20
2018-11-29T04:23:19.033Z,16.13
2018-11-29T04:25:47.390Z,21.40
2018-11-29T04:28:15.715Z,21.33
2018-11-29T04:30:44.058Z,20.07
2018-11-29T04:33:12.482Z,17.50
2018-11-29T04:35:40.778Z,22.17
2018-11-29T04:38:09.100Z,22.20
2018-11-29T04:40:37.531Z,18.40
2018-11-29T04:43:05.964Z,18.47
2018-11-29T04:45:45.621Z,20.00
2018-11-29T04:48:13.964Z,19.17
2018-11-29T04:50:42.316Z,19.90
2018-11-29T04:53:10.684Z,18.03
2018-11-29T04:55:40.710Z,21.03
2018-11-29T04:58:09.063Z,25.03
2018-11-29T05:00:37.383Z,22.17
2018-11-29T05:03:05.890Z,19.73
2018-11-29T05:05:34.255Z,16.40
2018-11-29T05:08:02.655Z,20.73
2018-11-29T05:10:31.014Z,22.20
2018-11-29T05:13:00.959Z,20.53
2018-11-29T05:15:29.362Z,21.43
2018-11-29T05:17:57.798Z,24.90
2018-11-29T05:20:26.182Z,21.13
2018-11-29T05:22:55.865Z,25.90
2018-11-29T05:25:24.204Z,19.40
2018-11-29T05:27:52.584Z,21.97
2018-11-29T05:30:21.127Z,21.23
2018-11-29T05:32:49.505Z,25.67
2018-11-29T05:35:17.923Z,26.33
2018-11-29T05:37:46.259Z,29.97
2018-11-29T05:40:14.660Z,26.97
2018-11-29T05:42:43.365Z,23.63
2018-11-29T05:45:11.848Z,22.30
2018-11-29T05:47:40.223Z,25.63
2018-11-29T05:50:10.794Z,28.70
2018-11-29T05:52:39.307Z,24.10
2018-11-29T05:55:10.498Z,22.77
2018-11-29T05:57:39.723Z,22.37
2018-11-29T06:00:13.275Z,29.20
2018-11-29T06:02:41.746Z,24.60
2018-11-29T06:05:11.231Z,30.33
2018-11-29T06:07:40.274Z,29.10
2018-11-29T06:10:08.768Z,33.20
2018-11-29T06:12:37.124Z,30.47
2018-11-29T06:15:06.694Z,30.47
2018-11-29T06:17:35.234Z,33.77
2018-11-29T06:20:03.740Z,30.20
2018-11-29T06:22:32.172Z,33.73
2018-11-29T06:25:00.656Z,30.63
2018-11-29T06:27:29.131Z,38.17
2018-11-29T06:29:57.687Z,33.00
2018-11-29T06:32:26.139Z,33.00
2018-11-29T06:34:54.566Z,31.40
2018-11-29T06:37:22.915Z,29.93
2018-11-29T06:39:51.342Z,30.40
2018-11-29T06:42:19.762Z,34.97
2018-11-29T06:44:48.932Z,33.20
2018-11-29T06:47:17.341Z,33.20
2018-11-29T06:49:45.754Z,39.17
2018-11-29T06:52:14.141Z,32.87
2018-11-29T06:54:42.589Z,35.73
2018-11-29T06:57:11.097Z,31.93
2018-11-29T06:59:39.501Z,33.10
2018-11-29T07:02:07.972Z,31.70
2018-11-29T07:04:36.413Z,29.00
2018-11-29T07:07:05.056Z,34.30
2018-11-29T07:09:33.463Z,30.80
2018-11-29T07:12:01.861Z,29.33
2018-11-29T07:14:30.451Z,29.53
2018-11-29T07:17:01.799Z,33.87
2018-11-29T07:19:30.151Z,27.13
2018-11-29T07:21:58.545Z,29.87
2018-11-29T07:24:26.915Z,31.47
2018-11-29T07:26:55.257Z,32.13
2018-11-29T07:29:25.231Z,30.30
2018-11-29T07:31:53.575Z,30.93
2018-11-29T07:34:21.959Z,28.20
2018-11-29T07:36:51.188Z,24.33
2018-11-29T07:39:19.573Z,29.40
2018-11-29T07:41:47.898Z,30.43
2018-11-29T07:44:16.259Z,30.13
2018-11-29T07:46:44.564Z,29.90
2018-11-29T07:49:12.913Z,28.93
2018-11-29T07:51:41.248Z,31.40
2018-11-29T07:54:09.546Z,26.80
2018-11-29T07:56:37.953Z,27.73
2018-11-29T07:59:06.378Z,32.23
2018-11-29T08:01:34.772Z,32.60
2018-11-29T08:04:03.163Z,34.60
2018-11-29T08:06:31.554Z,30.10
2018-11-29T08:08:59.903Z,28.80
2018-11-29T08:11:28.240Z,30.73
2018-11-29T08:13:56.592Z,29.47
2018-11-29T08:16:25.011Z,32.10
2018-11-29T08:18:53.357Z,33.27
2018-11-29T08:21:21.696Z,28.13
2018-11-29T08:23:50.006Z,32.43
2018-11-29T08:26:18.299Z,27.47
2018-11-29T08:28:46.668Z,28.30
2018-11-29T08:31:15.044Z,32.57
2018-11-29T08:33:43.423Z,30.90
2018-11-29T08:36:11.724Z,32.53
2018-11-29T08:38:40.101Z,31.63
2018-11-29T08:41:08.455Z,25.73
2018-11-29T08:43:36.763Z,22.07
2018-11-29T08:46:05.260Z,24.80
2018-11-29T08:48:33.686Z,25.83
2018-11-29T08:51:02.010Z,25.13
2018-11-29T08:53:30.354Z,28.73
2018-11-29T08:55:59.401Z,28.20
2018-11-29T08:58:27.739Z,27.90
2018-11-29T09:00:56.198Z,25.37
2018-11-29T09:03:24.629Z,27.80
2018-11-29T09:05:52.999Z,25.03
2018-11-29T09:08:21.387Z,24.43
2018-11-29T09:10:49.747Z,27.30
2018-11-29T09:13:18.154Z,26.40
2018-11-29T09:15:46.492Z,28.70
2018-11-29T09:18:14.864Z,24.53
2018-11-29T09:20:43.211Z,28.57
2018-11-29T09:23:11.563Z,31.60
2018-11-29T09:25:40.025Z,21.67
2018-11-29T09:28:08.384Z,21.20
2018-11-29T09:30:36.754Z,22.70
2018-11-29T09:33:05.176Z,24.30
2018-11-29T09:35:33.559Z,20.47
2018-11-29T09:38:01.921Z,21.53
2018-11-29T09:40:30.244Z,23.20
2018-11-29T09:42:58.644Z,20.50
2018-11-29T09:45:26.967Z,22.90
2018-11-29T09:47:56.129Z,20.20
2018-11-29T09:50:25.650Z,19.97
2018-11-29T09:52:54.127Z,21.33
2018-11-29T09:55:22.529Z,26.50
2018-11-29T09:57:51.196Z,17.50
2018-11-29T10:00:27.687Z,22.53
2018-11-29T10:02:54.150Z,18.77
2018-11-29T10:05:22.489Z,19.17
2018-11-29T10:07:50.847Z,20.70
2018-11-29T10:10:19.295Z,23.20
2018-11-29T10:12:47.693Z,23.13
2018-11-29T10:15:16.032Z,21.30
2018-11-29T10:17:44.349Z,21.20
2018-11-29T10:20:13.820Z,23.50
2018-11-29T10:22:42.729Z,17.57
2018-11-29T10:25:12.331Z,19.27
2018-11-29T10:27:41.323Z,19.30
2018-11-29T10:30:19.471Z,18.67
2018-11-29T10:32:47.927Z,20.83
2018-11-29T10:35:16.383Z,21.80
2018-11-29T10:37:44.689Z,22.13
2018-11-29T10:40:13.076Z,18.37
2018-11-29T10:42:41.377Z,21.47
2018-11-29T10:45:11.362Z,27.33
2018-11-29T10:47:40.003Z,22.33
2018-11-29T10:50:10.609Z,24.93
2018-11-29T10:52:39.011Z,29.07
2018-11-29T10:55:13.309Z,33.90
2018-11-29T10:57:41.691Z,23.20
2018-11-29T11:00:21.904Z,25.00
2018-11-29T11:02:56.622Z,25.90
2018-11-29T11:05:25.016Z,32.27
2018-11-29T11:07:53.347Z,30.73
2018-11-29T11:10:21.676Z,29.63
2018-11-29T11:12:49.995Z,22.80
2018-11-29T11:15:18.338Z,27.47
2018-11-29T11:17:46.682Z,36.53
2018-11-29T11:20:15.074Z,31.23
2018-11-29T11:22:43.413Z,30.57
2018-11-29T11:25:12.760Z,25.80
2018-11-29T11:27:41.056Z,17.17
2018-11-29T11:30:13.877Z,16.03
2018-11-29T11:32:42.691Z,14.73
2018-11-29T11:35:11.232Z,13.53
2018-11-29T11:37:39.576Z,15.60
2018-11-29T11:40:09.722Z,15.07
2018-11-29T11:42:38.100Z,18.33
2018-11-29T11:45:09.722Z,18.37
2018-11-29T11:47:38.805Z,17.87
2018-11-29T11:50:19.237Z,18.00
2018-11-29T11:52:47.741Z,21.67
2018-11-29T11:55:18.937Z,20.50
2018-11-29T11:57:45.088Z,21.70
2018-11-29T12:00:30.166Z,19.60
2018-11-29T12:03:06.045Z,21.43
2018-11-29T12:05:35.803Z,21.63
2018-11-29T12:08:04.160Z,22.83
2018-11-29T12:10:32.502Z,31.83
2018-11-29T12:13:00.858Z,25.43
2018-11-29T12:15:29.226Z,26.93
2018-11-29T12:17:57.574Z,30.83
2018-11-29T12:20:25.996Z,27.77
2018-11-29T12:22:54.385Z,25.63
2018-11-29T12:25:22.932Z,22.07
2018-11-29T12:27:52.146Z,25.53
2018-11-29T12:30:22.710Z,26.70
2018-11-29T12:32:51.919Z,34.93
2018-11-29T12:35:20.405Z,32.70
2018-11-29T12:37:48.831Z,32.90
2018-11-29T12:40:17.343Z,30.17
2018-11-29T12:42:45.701Z,32.57
2018-11-29T12:45:14.696Z,31.73
2018-11-29T12:47:44.409Z,32.20
2018-11-29T12:50:15.616Z,30.30
2018-11-29T12:52:44.014Z,35.93
2018-11-29T12:55:13.418Z,27.97
2018-11-29T12:57:42.220Z,25.47
2018-11-29T13:00:17.296Z,26.20
2018-11-29T13:02:48.691Z,31.47
2018-11-29T13:05:17.071Z,26.37
2018-11-29T13:07:45.644Z,28.10
2018-11-29T13:10:15.372Z,26.50
2018-11-29T13:12:43.750Z,27.80
2018-11-29T13:15:14.277Z,25.03
2018-11-29T13:17:42.603Z,32.50
2018-11-29T13:20:13.098Z,30.40
2018-11-29T13:22:41.473Z,32.70
2018-11-29T13:25:11.226Z,29.03
2018-11-29T13:27:41.193Z,32.07
2018-11-29T13:30:10.997Z,32.30
2018-11-29T13:32:40.247Z,35.10
2018-11-29T13:35:13.399Z,37.80
2018-11-29T13:37:41.787Z,30.90
2018-11-29T13:40:12.059Z,33.27
2018-11-29T13:42:40.438Z,33.10
2018-11-29T13:45:10.844Z,34.70
2018-11-29T13:47:39.936Z,27.40
2018-11-29T13:50:11.762Z,30.60
2018-11-29T13:52:39.914Z,26.37
2018-11-29T13:55:09.518Z,25.03
2018-11-29T13:57:37.902Z,25.53
2018-11-29T14:00:13.275Z,30.03
2018-11-29T14:02:42.390Z,25.40
2018-11-29T14:05:11.165Z,26.40
2018-11-29T14:07:39.577Z,29.27
2018-11-29T14:10:13.313Z,28.50
2018-11-29T14:12:41.658Z,26.53
2018-11-29T14:15:41.416Z,18.37
2018-11-29T14:18:09.809Z,18.03
2018-11-29T14:20:38.131Z,18.80
2018-11-29T14:23:08.127Z,25.00
2018-11-29T14:25:36.507Z,16.07
2018-11-29T14:28:05.101Z,15.20
2018-11-29T14:30:33.460Z,20.27
2018-11-29T14:33:02.728Z,20.30
2018-11-29T14:35:31.057Z,23.40
2018-11-29T14:37:59.398Z,30.00
2018-11-29T14:40:29.151Z,28.63
2018-11-29T14:42:57.510Z,28.67
2018-11-29T14:45:26.660Z,33.40
2018-11-29T14:47:55.462Z,34.00
2018-11-29T14:50:30.369Z,35.57
2018-11-29T14:52:58.795Z,34.90
2018-11-29T14:55:27.197Z,40.07
2018-11-29T14:57:55.530Z,39.70
2018-11-29T15:00:25.319Z,38.43
2018-11-29T15:02:54.067Z,50.37
2018-11-29T15:05:25.583Z,41.90
2018-11-29T15:07:53.876Z,43.93
2018-11-29T15:10:22.211Z,38.50
2018-11-29T15:12:50.559Z,48.13
2018-11-29T15:15:18.892Z,39.40
2018-11-29T15:17:48.007Z,39.50
2018-11-29T15:20:18.858Z,34.03
2018-11-29T15:22:47.352Z,35.70
2018-11-29T15:25:15.670Z,35.83
2018-11-29T15:27:44.049Z,36.13
2018-11-29T15:30:16.687Z,38.10
2018-11-29T15:32:45.028Z,31.77
2018-11-29T15:35:13.354Z,33.67
2018-11-29T15:37:41.692Z,34.30
2018-11-29T15:40:11.403Z,32.23
2018-11-29T15:42:39.798Z,36.13
2018-11-29T15:45:24.841Z,32.57
2018-11-29T15:47:53.181Z,35.83
2018-11-29T15:50:21.583Z,34.73
2018-11-29T15:52:49.987Z,33.60
2018-11-29T15:55:21.548Z,36.27
2018-11-29T15:57:50.813Z,33.10
2018-11-29T16:00:25.033Z,36.30
2018-11-29T16:02:54.145Z,33.50
2018-11-29T16:05:22.453Z,35.33
2018-11-29T16:07:51.306Z,32.50
2018-11-29T16:10:22.601Z,34.30
2018-11-29T16:12:50.950Z,35.63
2018-11-29T16:15:19.793Z,36.07
2018-11-29T16:17:48.786Z,37.73
2018-11-29T16:20:18.544Z,33.90
2018-11-29T16:22:47.021Z,26.20
2018-11-29T16:25:16.246Z,32.97
2018-11-29T16:27:44.611Z,27.20
2018-11-29T16:31:18.007Z,35.90
2018-11-29T16:33:46.356Z,27.73
2018-11-29T16:36:15.622Z,25.70
2018-11-29T16:38:44.012Z,27.87
2018-11-29T16:41:12.448Z,27.43
2018-11-29T16:43:41.484Z,23.73
2018-11-29T16:46:09.849Z,40.33
2018-11-29T16:48:38.224Z,60.73
2018-11-29T16:51:07.501Z,37.97
2018-11-29T16:53:35.840Z,31.63
2018-11-29T16:56:04.187Z,34.03
2018-11-29T16:58:32.609Z,31.00
2018-11-29T17:01:01.269Z,36.67
2018-11-29T17:03:29.668Z,28.93
2018-11-29T17:05:58.023Z,28.90
2018-11-29T17:08:26.380Z,36.13
2018-11-29T17:10:54.717Z,36.40
2018-11-29T17:13:23.036Z,45.67
2018-11-29T17:15:51.427Z,35.13
2018-11-29T17:18:19.821Z,33.77
2018-11-29T17:20:48.299Z,29.03
2018-11-29T17:23:16.733Z,26.90
2018-11-29T17:25:45.188Z,43.53
2018-11-29T17:28:13.542Z,40.27
2018-11-29T17:30:41.955Z,83.37
2018-11-29T17:33:10.332Z,55.60
2018-11-29T17:35:38.742Z,59.20
2018-11-29T17:38:07.285Z,41.30
2018-11-29T17:40:36.996Z,41.57
2018-11-29T17:43:05.948Z,33.97
2018-11-29T17:45:34.331Z,39.10
2018-11-29T17:48:05.904Z,36.13
2018-11-29T17:50:35.499Z,47.23
2018-11-29T17:53:03.874Z,52.30
2018-11-29T17:55:32.244Z,55.73
2018-11-29T17:58:01.602Z,72.60
2018-11-29T18:00:32.382Z,74.77
2018-11-29T18:03:00.803Z,74.40
2018-11-29T18:05:29.276Z,81.80
2018-11-29T18:07:57.888Z,75.83
2018-11-29T18:10:27.748Z,77.77
2018-11-29T18:12:58.555Z,66.27
2018-11-29T18:15:30.759Z,58.87
2018-11-29T18:17:59.109Z,57.40
2018-11-29T18:20:27.474Z,50.57
2018-11-29T18:22:55.838Z,66.03
2018-11-29T18:25:25.279Z,62.77
2018-11-29T18:27:54.361Z,61.30
2018-11-29T18:30:23.270Z,62.87
2018-11-29T18:32:51.640Z,84.63
2018-11-29T18:35:20.001Z,68.00
2018-11-29T18:37:48.333Z,55.73
2018-11-29T18:40:18.640Z,56.80
2018-11-29T18:42:48.468Z,65.03
2018-11-29T18:45:17.773Z,75.70
2018-11-29T18:47:48.307Z,64.20
2018-11-29T18:50:18.981Z,43.70
2018-11-29T18:52:47.424Z,50.97
2018-11-29T18:55:15.868Z,77.77
2018-11-29T18:57:44.226Z,67.80
2018-11-29T19:00:13.703Z,50.27
2018-11-29T19:02:42.273Z,35.63
2018-11-29T19:05:10.718Z,36.10
2018-11-29T19:07:39.114Z,34.80
2018-11-29T19:10:11.525Z,40.80
2018-11-29T19:12:41.445Z,42.67
2018-11-29T19:15:11.285Z,52.43
2018-11-29T19:17:39.998Z,38.50
2018-11-29T19:20:10.442Z,37.13
2018-11-29T19:22:39.417Z,32.47
2018-11-29T19:25:15.727Z,31.23
2018-11-29T19:27:44.172Z,51.70
2018-11-29T19:30:19.000Z,77.00
2018-11-29T19:32:49.032Z,49.20
2018-11-29T19:35:18.449Z,28.30
2018-11-29T19:37:46.969Z,22.90
2018-11-29T19:40:16.718Z,21.63
2018-11-29T19:42:45.249Z,20.23
2018-11-29T19:45:15.647Z,19.10
2018-11-29T19:47:44.127Z,15.33
2018-11-29T19:50:15.464Z,18.53
2018-11-29T19:52:46.799Z,17.73
2018-11-29T19:55:19.680Z,16.40
2018-11-29T19:57:48.042Z,16.60
2018-11-29T20:00:16.396Z,18.13
2018-11-29T20:02:45.732Z,13.13
2018-11-29T20:05:14.162Z,15.37
2018-11-29T20:07:42.557Z,17.20
2018-11-29T20:10:13.898Z,17.43
2018-11-29T20:12:42.476Z,12.93
2018-11-29T20:15:17.051Z,14.03
2018-11-29T20:17:45.453Z,14.43
2018-11-29T20:20:13.876Z,17.60
2018-11-29T20:22:43.192Z,13.57
2018-11-29T20:25:16.588Z,17.53
2018-11-29T20:27:45.089Z,15.70
2018-11-29T20:30:15.493Z,15.67
2018-11-29T20:32:44.302Z,16.00
2018-11-29T20:35:13.893Z,14.20
2018-11-29T20:37:42.298Z,16.17
2018-11-29T20:40:15.690Z,18.37
2018-11-29T20:42:44.644Z,17.33
2018-11-29T20:45:19.361Z,13.83
2018-11-29T20:47:47.709Z,19.70
2018-11-29T20:50:19.164Z,16.17
2018-11-29T20:52:48.213Z,13.30
2018-11-29T20:55:18.607Z,13.67
2018-11-29T20:57:46.989Z,15.87
2018-11-29T21:00:15.765Z,15.50
2018-11-29T21:02:44.199Z,14.10
2018-11-29T21:05:14.877Z,14.03
2018-11-29T21:07:44.724Z,21.80
2018-11-29T21:10:16.452Z,19.27
2018-11-29T21:12:45.968Z,20.50
2018-11-29T21:15:15.392Z,17.23
2018-11-29T21:17:43.734Z,16.43
2018-11-29T21:20:16.102Z,20.07
2018-11-29T21:22:45.715Z,20.10
2018-11-29T21:25:15.636Z,22.00
2018-11-29T21:27:44.038Z,27.70
2018-11-29T21:30:13.623Z,23.93
2018-11-29T21:32:42.994Z,18.40
2018-11-29T21:35:12.740Z,27.40
2018-11-29T21:37:41.137Z,18.67
2018-11-29T21:40:14.289Z,20.70
2018-11-29T21:42:42.752Z,19.07
2018-11-29T21:45:11.089Z,18.47
2018-11-29T21:47:39.462Z,19.23
2018-11-29T21:50:08.249Z,17.10
2018-11-29T21:52:36.629Z,21.33
2018-11-29T21:55:06.688Z,22.70
2018-11-29T21:57:36.081Z,22.80
2018-11-29T22:00:09.228Z,24.70
2018-11-29T22:02:41.686Z,19.90
2018-11-29T22:05:06.765Z,27.20
2018-11-29T22:07:35.393Z,18.73
2018-11-29T22:10:04.017Z,29.93
2018-11-29T22:12:32.705Z,19.90
2018-11-29T22:15:01.385Z,33.57
2018-11-29T22:17:29.990Z,59.07
2018-11-29T22:19:58.661Z,42.90
2018-11-29T22:22:28.391Z,39.27
2018-11-29T22:24:56.093Z,34.40
2018-11-29T22:27:24.775Z,35.00
2018-11-29T22:29:53.427Z,42.43
2018-11-29T22:32:22.043Z,31.63
2018-11-29T22:34:50.706Z,28.50
2018-11-29T22:37:19.312Z,26.53
2018-11-29T22:39:47.711Z,25.70
2018-11-29T22:42:16.084Z,27.33
2018-11-29T22:44:44.421Z,23.97
2018-11-29T22:47:12.849Z,31.83
2018-11-29T22:49:41.216Z,30.17
2018-11-29T22:52:09.646Z,27.67
2018-11-29T22:54:38.025Z,20.67
2018-11-29T22:57:07.347Z,24.57
2018-11-29T22:59:36.416Z,23.27
2018-11-29T23:02:05.207Z,20.60
2018-11-29T23:04:33.572Z,20.67
2018-11-29T23:07:01.967Z,22.20
2018-11-29T23:09:31.015Z,19.60
2018-11-29T23:11:59.360Z,20.10
2018-11-29T23:14:27.757Z,16.50
2018-11-29T23:16:56.130Z,21.17
2018-11-29T23:19:24.426Z,22.90
2018-11-29T23:21:52.747Z,23.60
2018-11-29T23:24:21.061Z,22.63
2018-11-29T23:26:49.372Z,20.17
2018-11-29T23:29:17.706Z,21.67
2018-11-29T23:31:47.120Z,24.50
2018-11-29T23:34:15.592Z,31.87
2018-11-29T23:36:43.982Z,33.70
2018-11-29T23:39:12.327Z,41.70
2018-11-29T23:41:40.726Z,29.60
2018-11-29T23:44:09.803Z,25.70
2018-11-29T23:46:38.172Z,23.07
2018-11-29T23:49:06.841Z,19.60
2018-11-29T23:51:35.738Z,26.00
2018-11-29T23:54:04.255Z,22.00
2018-11-29T23:56:32.636Z,23.83
2018-11-29T23:59:03.523Z,21.80
